Time;durP1;ratioP1;P1;durP2;ratioP2;P2;SDS_P1;SDS_P2;PMS_P1;PMS_P2;Temp;Humidity;BMP_temperature;BMP_pressure;BME280_temperature;BME280_humidity;BME280_pressure;Samples;Min_cycle;Max_cycle;Signal;HPM_P1;HPM_P2
2021/12/24 00:00:19;;;;;;;7.75;3.80;;;;;;;-9.98;74.90;98924.22;4887766;29;20020;-56
2021/12/24 00:02:45;;;;;;;4.90;3.80;;;;;;;-9.89;74.48;98942.19;4890206;29;20100;-56
2021/12/24 00:05:11;;;;;;;6.35;4.05;;;;;;;-9.88;75.32;98938.03;4889270;29;20341;-56
2021/12/24 00:07:38;;;;;;;6.28;3.70;;;;;;;-9.92;74.78;98944.56;4904496;29;20044;-54
2021/12/24 00:10:06;;;;;;;6.22;3.90;;;;;;;-10.07;74.89;98932.16;4890197;29;20225;-55
2021/12/24 00:12:34;;;;;;;3.97;3.25;;;;;;;-9.94;75.26;98940.25;4890217;29;20057;-55
2021/12/24 00:15:10;;;;;;;5.55;3.85;;;;;;;-9.96;74.40;98937.69;4900677;29;20032;-57
2021/12/24 00:17:37;;;;;;;4.60;3.88;;;;;;;-9.76;75.03;98932.72;4890133;29;20033;-56
2021/12/24 00:20:20;;;;;;;6.70;4.45;;;;;;;-9.79;75.33;98928.47;4888679;29;20032;-56
2021/12/24 00:36:23;;;;;;;5.93;4.05;;;;;;;-9.71;73.64;98924.66;4889398;29;20321;-56
2021/12/24 00:38:49;;;;;;;8.25;4.28;;;;;;;-9.64;75.53;98915.78;4889732;29;20036;-57
2021/12/24 00:41:15;;;;;;;6.15;4.20;;;;;;;-9.72;73.60;98925.44;4889677;29;20032;-57
2021/12/24 00:43:40;;;;;;;6.43;4.45;;;;;;;-9.78;75.22;98919.28;4888436;29;20025;-56
2021/12/24 00:46:06;;;;;;;5.22;3.88;;;;;;;-9.75;73.05;98921.94;4889603;29;20025;-56
2021/12/24 00:48:32;;;;;;;6.38;3.92;;;;;;;-9.78;72.69;98920.13;4889046;29;20020;-57
2021/12/24 00:56:11;;;;;;;5.95;3.95;;;;;;;-9.79;73.72;98920.06;4887831;29;20044;-57
2021/12/24 00:58:37;;;;;;;5.95;3.60;;;;;;;-9.78;73.53;98892.59;4887852;29;20041;-56
2021/12/24 01:01:05;;;;;;;5.82;3.83;;;;;;;-10.17;74.02;98849.91;4889132;29;20092;-57
2021/12/24 01:03:31;;;;;;;7.18;4.38;;;;;;;-9.82;74.55;98888.22;4888287;29;20096;-58
2021/12/24 01:05:57;;;;;;;6.32;3.83;;;;;;;-9.78;74.58;98895.09;4897487;29;20079;-58
2021/12/24 01:08:23;;;;;;;7.28;4.45;;;;;;;-9.70;73.24;98892.97;4896557;29;20262;-58
2021/12/24 01:11:01;;;;;;;6.00;3.70;;;;;;;-9.62;73.76;98884.16;4888004;29;20029;-57
2021/12/24 01:13:28;;;;;;;5.38;3.63;;;;;;;-9.58;73.82;98880.13;4886963;29;20041;-56
2021/12/24 01:16:03;;;;;;;5.88;3.97;;;;;;;-9.55;73.81;98875.25;4889292;29;20056;-57
2021/12/24 01:21:51;;;;;;;6.05;4.03;;;;;;;-9.34;73.42;98877.84;4888243;29;20072;-57
2021/12/24 01:23:50;;;;;;;5.68;3.88;;;;;;;-9.47;73.39;98873.94;4881273;29;20060;-56
2021/12/24 01:26:32;;;;;;;7.63;4.15;;;;;;;-9.39;73.95;98871.78;4889298;29;20341;-56
2021/12/24 01:29:37;;;;;;;6.32;4.05;;;;;;;-9.33;73.64;98879.59;4889176;29;20096;-56
2021/12/24 01:40:23;;;;;;;6.13;4.13;;;;;;;-9.34;73.11;98865.31;4887988;29;20125;-57
2021/12/24 01:42:51;;;;;;;6.05;4.20;;;;;;;-9.25;71.67;98888.31;4889217;29;20385;-56
2021/12/24 01:45:26;;;;;;;7.78;3.70;;;;;;;-9.37;72.91;98881.06;4891337;29;20025;-57
2021/12/24 01:47:55;;;;;;;6.40;4.05;;;;;;;-9.29;72.46;98865.50;4891114;29;20482;-57
2021/12/24 01:50:21;;;;;;;6.82;4.43;;;;;;;-9.22;72.17;98870.88;4908125;29;20120;-57
2021/12/24 01:52:49;;;;;;;6.32;4.18;;;;;;;-9.28;72.09;98872.25;4892788;29;20387;-57
2021/12/24 01:55:17;;;;;;;6.97;4.13;;;;;;;-9.32;72.45;98865.38;4892747;29;20039;-56
2021/12/24 01:57:43;;;;;;;6.22;3.65;;;;;;;-9.45;70.61;98859.81;4903550;29;20077;-55
2021/12/24 02:00:12;;;;;;;7.30;4.20;;;;;;;-9.59;73.49;98829.16;4892422;29;20341;-56
2021/12/24 02:02:38;;;;;;;8.05;4.53;;;;;;;-9.33;71.91;98851.13;4892338;29;20136;-55
2021/12/24 02:05:04;;;;;;;5.53;4.03;;;;;;;-9.35;71.98;98853.56;4892387;29;20041;-55
2021/12/24 02:07:30;;;;;;;11.60;3.90;;;;;;;-9.46;72.82;98850.59;4892432;29;20041;-55
2021/12/24 02:09:55;;;;;;;5.38;3.88;;;;;;;-9.38;72.51;98838.41;4892218;29;20048;-55
2021/12/24 02:12:24;;;;;;;7.43;4.38;;;;;;;-9.34;71.47;98860.31;4892149;29;20322;-57
2021/12/24 02:14:53;;;;;;;7.78;4.20;;;;;;;-9.42;73.05;98851.59;4891410;29;20108;-57
2021/12/24 02:17:52;;;;;;;7.55;4.30;;;;;;;-9.32;72.30;98851.19;4891153;29;20033;-57
2021/12/24 02:28:39;;;;;;;8.88;4.30;;;;;;;-9.45;72.00;98824.75;4891896;29;20076;-56
2021/12/24 02:31:28;;;;;;;7.70;4.82;;;;;;;-9.35;72.25;98820.16;4891813;29;20125;-56
2021/12/24 02:33:54;;;;;;;6.30;3.90;;;;;;;-9.24;73.59;98818.97;4890700;29;20021;-57
2021/12/24 02:36:21;;;;;;;9.48;4.57;;;;;;;-9.40;73.07;98819.94;4890898;29;20108;-56
2021/12/24 02:38:47;;;;;;;7.63;4.55;;;;;;;-9.47;71.92;98817.97;4890725;29;20235;-57
2021/12/24 02:41:14;;;;;;;14.00;4.35;;;;;;;-9.35;72.32;98823.50;4890527;29;20321;-56
2021/12/24 02:43:40;;;;;;;7.18;4.50;;;;;;;-9.34;73.04;98817.69;4890763;29;20028;-56
2021/12/24 02:46:13;;;;;;;6.95;4.20;;;;;;;-9.44;73.34;98808.91;4891682;29;20048;-56
2021/12/24 02:54:08;;;;;;;7.20;4.47;;;;;;;-9.33;73.40;98801.00;4887849;29;19983;-55
2021/12/24 02:56:37;;;;;;;7.15;4.00;;;;;;;-9.67;72.88;98759.47;4890730;29;20438;-57
2021/12/24 02:59:05;;;;;;;8.57;4.35;;;;;;;-9.42;72.70;98787.31;4890159;29;20092;-57
2021/12/24 03:01:39;;;;;;;8.63;4.40;;;;;;;-9.29;72.05;98791.19;4895178;29;20224;-56
2021/12/24 03:04:06;;;;;;;8.68;4.78;;;;;;;-9.30;72.59;98791.13;4901909;29;20033;-57
2021/12/24 03:06:35;;;;;;;6.47;4.15;;;;;;;-9.41;73.08;98789.00;4892182;29;20024;-57
2021/12/24 03:09:06;;;;;;;6.55;4.32;;;;;;;-9.59;72.90;98743.97;4904609;29;20021;-57
2021/12/24 03:11:32;;;;;;;6.90;4.65;;;;;;;-9.27;72.16;98786.25;4906652;29;20333;-57
2021/12/24 03:13:58;;;;;;;8.75;5.00;;;;;;;-9.30;73.35;98786.13;4889191;29;20218;-57
2021/12/24 03:16:24;;;;;;;6.75;4.30;;;;;;;-9.31;72.49;98782.72;4905791;29;20036;-57
2021/12/24 03:18:49;;;;;;;6.40;4.30;;;;;;;-9.30;72.31;98776.09;4891037;29;20210;-56
2021/12/24 03:21:31;;;;;;;7.32;4.70;;;;;;;-9.23;72.93;98783.94;4889687;29;20028;-56
2021/12/24 03:26:41;;;;;;;6.63;4.47;;;;;;;-9.28;71.50;98775.34;4899972;29;20084;-57
2021/12/24 03:29:08;;;;;;;7.13;4.65;;;;;;;-9.47;72.79;98785.38;4895792;29;20052;-57
2021/12/24 03:31:37;;;;;;;6.97;4.50;;;;;;;-9.40;72.38;98762.31;4883892;29;20037;-57
2021/12/24 03:34:04;;;;;;;7.25;4.97;;;;;;;-9.39;72.18;98757.34;4889627;29;20023;-56
2021/12/24 03:36:30;;;;;;;7.22;4.72;;;;;;;-9.38;73.07;98758.19;4890563;29;20229;-56
2021/12/24 03:38:56;;;;;;;6.82;4.43;;;;;;;-9.40;72.61;98757.28;4889882;29;20025;-57
2021/12/24 03:41:22;;;;;;;6.97;4.32;;;;;;;-9.51;71.19;98749.31;4890781;29;20032;-55
2021/12/24 03:43:49;;;;;;;8.05;4.50;;;;;;;-9.48;72.28;98743.56;4889593;29;20264;-56
2021/12/24 03:46:17;;;;;;;9.90;5.32;;;;;;;-9.54;72.66;98751.69;4890660;29;20077;-56
2021/12/24 03:49:00;;;;;;;8.55;4.88;;;;;;;-9.52;73.82;98752.59;4890267;29;20081;-56
2021/12/24 03:56:42;;;;;;;7.40;4.82;;;;;;;-9.40;72.20;98764.81;4889468;29;20037;-56
2021/12/24 03:59:08;;;;;;;10.45;5.13;;;;;;;-9.48;74.13;98751.09;4890247;29;20048;-56
2021/12/24 04:01:35;;;;;;;7.72;5.18;;;;;;;-9.45;73.43;98762.09;4889274;29;20036;-58
2021/12/24 04:04:01;;;;;;;7.47;5.10;;;;;;;-9.30;72.49;98754.38;4885933;29;20097;-57
2021/12/24 04:06:27;;;;;;;6.93;4.80;;;;;;;-9.23;72.27;98750.50;4880862;29;20322;-57
2021/12/24 04:08:53;;;;;;;6.30;4.35;;;;;;;-9.30;72.95;98766.91;4893033;29;20095;-59
2021/12/24 04:11:18;;;;;;;7.47;4.55;;;;;;;-9.44;71.97;98743.75;4901596;29;20059;-56
2021/12/24 04:13:44;;;;;;;7.30;4.53;;;;;;;-9.39;73.78;98753.97;4889102;29;20105;-57
2021/12/24 04:16:10;;;;;;;6.18;4.30;;;;;;;-9.48;73.54;98751.09;4889066;29;20108;-56
2021/12/24 04:18:44;;;;;;;8.48;4.75;;;;;;;-9.47;73.25;98750.31;4904411;29;20275;-56
2021/12/24 04:26:38;;;;;;;6.70;4.75;;;;;;;-9.36;71.78;98739.09;4889354;29;20392;-55
2021/12/24 04:29:04;;;;;;;8.60;5.30;;;;;;;-9.39;72.42;98756.47;4888534;29;20045;-57
2021/12/24 04:31:46;;;;;;;8.05;4.80;;;;;;;-9.42;72.41;98728.78;4887441;29;20112;-58
2021/12/24 04:34:13;;;;;;;6.57;4.65;;;;;;;-9.42;71.86;98731.28;4888695;29;20044;-56
2021/12/24 04:39:39;;;;;;;7.93;5.43;;;;;;;-9.47;72.20;98723.59;4888658;29;20028;-56
2021/12/24 05:01:53;;;;;;;8.32;5.53;;;;;;;-9.50;71.53;98723.47;4871626;29;20053;-57
2021/12/24 05:04:25;;;;;;;11.75;6.20;;;;;;;-9.28;72.84;98714.34;4887301;29;20029;-56
2021/12/24 05:06:57;;;;;;;10.05;5.82;;;;;;;-9.38;70.95;98698.06;4889542;29;20032;-57
2021/12/24 05:09:25;;;;;;;9.38;5.68;;;;;;;-9.36;72.14;98716.53;4888996;29;20025;-56
2021/12/24 05:11:51;;;;;;;11.48;6.22;;;;;;;-9.52;73.26;98712.50;4888391;29;20101;-57
2021/12/24 05:14:16;;;;;;;11.90;5.88;;;;;;;-9.41;71.87;98697.94;4887496;29;20025;-57
2021/12/24 05:16:53;;;;;;;9.57;5.88;;;;;;;-9.65;70.95;98681.06;4888950;29;20033;-56
2021/12/24 05:22:03;;;;;;;9.95;6.15;;;;;;;-9.67;71.79;98680.16;4891762;29;20063;-57
2021/12/24 05:24:30;;;;;;;10.95;5.63;;;;;;;-9.60;71.56;98682.13;4890538;29;20049;-56
2021/12/24 05:27:03;;;;;;;10.70;4.97;;;;;;;-9.57;72.31;98687.25;4891862;29;20025;-56
2021/12/24 05:29:29;;;;;;;8.60;6.00;;;;;;;-9.48;71.98;98688.44;4891817;29;20041;-57
2021/12/24 05:31:55;;;;;;;11.65;5.45;;;;;;;-9.39;74.05;98691.31;4906630;29;20065;-56
2021/12/24 05:34:21;;;;;;;10.60;5.25;;;;;;;-9.46;71.68;98695.25;4905262;29;20040;-56
2021/12/24 05:36:48;;;;;;;10.10;5.57;;;;;;;-9.53;72.99;98685.75;4891283;29;20044;-57
2021/12/24 05:39:16;;;;;;;7.70;5.43;;;;;;;-9.48;71.69;98680.94;4892950;29;20116;-58
2021/12/24 05:41:42;;;;;;;9.38;5.65;;;;;;;-9.38;72.61;98688.03;4903214;29;20040;-56
2021/12/24 05:44:10;;;;;;;8.50;5.18;;;;;;;-9.33;72.05;98691.59;4897398;29;20039;-56
2021/12/24 05:46:36;;;;;;;9.25;5.35;;;;;;;-9.42;72.63;98691.19;4892668;29;20044;-57
2021/12/24 05:49:04;;;;;;;10.20;5.85;;;;;;;-9.76;71.42;98624.66;4891419;29;20060;-57
2021/12/24 05:51:30;;;;;;;8.75;5.03;;;;;;;-9.31;71.32;98692.50;4891387;29;20037;-57
2021/12/24 05:53:55;;;;;;;9.68;5.55;;;;;;;-9.39;72.06;98693.81;4891263;29;20047;-57
2021/12/24 05:56:21;;;;;;;9.52;5.40;;;;;;;-9.37;72.22;98689.75;4892464;29;20035;-57
2021/12/24 05:58:47;;;;;;;12.27;5.95;;;;;;;-9.30;72.42;98689.22;4879976;29;20037;-57
2021/12/24 06:01:13;;;;;;;9.95;5.53;;;;;;;-9.31;72.75;98681.63;4891198;29;20037;-58
2021/12/24 06:03:38;;;;;;;8.30;5.38;;;;;;;-9.17;73.23;98698.09;4891759;29;20033;-56
2021/12/24 06:06:04;;;;;;;10.50;5.85;;;;;;;-9.31;72.91;98694.16;4892202;29;20041;-56
2021/12/24 06:08:30;;;;;;;10.63;5.50;;;;;;;-9.45;71.60;98666.88;4901248;29;20029;-56
2021/12/24 06:10:55;;;;;;;9.43;5.63;;;;;;;-9.39;72.98;98671.28;4888013;29;20217;-56
2021/12/24 06:13:23;;;;;;;9.43;5.57;;;;;;;-9.30;72.58;98673.31;4890856;29;20033;-56
2021/12/24 06:15:50;;;;;;;9.02;5.15;;;;;;;-9.40;72.81;98667.06;4889684;29;20265;-57
2021/12/24 06:18:26;;;;;;;10.45;5.85;;;;;;;-9.36;73.31;98671.41;4892515;29;20043;-57
2021/12/24 06:20:56;;;;;;;9.57;5.63;;;;;;;-9.30;72.42;98685.84;4905073;29;20133;-56
2021/12/24 06:23:25;;;;;;;6.93;5.32;;;;;;;-9.26;74.40;98677.63;4890910;29;20051;-55
2021/12/24 06:25:52;;;;;;;9.70;5.30;;;;;;;-9.25;73.40;98676.84;4889636;29;20041;-59
2021/12/24 06:28:18;;;;;;;9.15;6.10;;;;;;;-9.06;72.45;98688.50;4890802;29;20029;-56
2021/12/24 06:30:44;;;;;;;12.23;7.35;;;;;;;-9.15;72.61;98688.13;4890171;29;20179;-56
2021/12/24 06:33:10;;;;;;;10.77;6.60;;;;;;;-9.24;72.11;98684.44;4891504;29;20025;-55
2021/12/24 06:35:37;;;;;;;12.27;6.97;;;;;;;-9.17;73.46;98673.00;4890680;29;20093;-55
2021/12/24 06:38:03;;;;;;;9.88;5.65;;;;;;;-9.17;72.19;98693.06;4890358;29;20260;-57
2021/12/24 06:40:29;;;;;;;10.10;6.07;;;;;;;-9.11;72.66;98683.28;4890506;29;20112;-55
2021/12/24 06:42:54;;;;;;;10.68;5.57;;;;;;;-9.24;72.39;98671.06;4890759;29;20074;-56
2021/12/24 06:45:24;;;;;;;7.78;5.28;;;;;;;-9.21;72.59;98689.56;4890810;29;20037;-57
2021/12/24 06:47:55;;;;;;;9.02;5.05;;;;;;;-9.42;72.71;98641.06;4891438;29;20024;-56
2021/12/24 06:50:21;;;;;;;;;;;;;;;-9.07;73.63;98694.31;4888879;29;20064;-57
2021/12/24 06:52:47;;;;;;;10.82;5.65;;;;;;;-9.08;72.54;98685.06;4889363;29;19908;-56
2021/12/24 06:55:13;;;;;;;10.30;5.88;;;;;;;-8.97;72.57;98677.97;4894141;29;20040;-56
2021/12/24 06:57:41;;;;;;;8.63;4.80;;;;;;;-8.96;72.27;98679.66;4895420;29;20029;-56
2021/12/24 07:00:09;;;;;;;7.88;4.55;;;;;;;-9.22;72.05;98634.34;4885601;29;20041;-56
2021/12/24 07:02:35;;;;;;;9.43;5.15;;;;;;;-8.90;72.25;98678.25;4900026;29;20318;-57
2021/12/24 07:05:02;;;;;;;7.68;5.13;;;;;;;-8.79;72.84;98695.38;4901728;29;20041;-56
2021/12/24 07:07:29;;;;;;;7.68;5.18;;;;;;;-8.87;71.97;98688.41;4894560;29;20033;-57
2021/12/24 07:09:54;;;;;;;11.13;5.57;;;;;;;-8.95;72.18;98694.81;4889654;29;20032;-57
2021/12/24 07:12:20;;;;;;;10.05;5.20;;;;;;;-8.96;73.11;98687.19;4888265;29;20056;-59
2021/12/24 07:14:47;;;;;;;10.10;4.53;;;;;;;-8.79;72.02;98691.25;4888172;29;20045;-58
2021/12/24 07:17:12;;;;;;;7.97;4.78;;;;;;;-8.95;73.10;98691.41;4893155;29;20040;-57
2021/12/24 07:19:38;;;;;;;9.60;5.10;;;;;;;-8.82;71.49;98687.75;4889657;29;20032;-58
2021/12/24 07:22:04;;;;;;;8.65;5.40;;;;;;;-9.06;72.74;98646.72;4894122;29;20037;-58
2021/12/24 07:24:30;;;;;;;8.82;5.22;;;;;;;-8.68;72.63;98684.09;4888371;29;20045;-57
2021/12/24 07:26:55;;;;;;;7.45;4.65;;;;;;;-8.63;71.62;98674.28;4888459;29;20024;-58
2021/12/24 07:29:21;;;;;;;8.63;5.90;;;;;;;-8.67;71.28;98665.75;4887999;29;20033;-57
2021/12/24 07:31:47;;;;;;;9.07;5.22;;;;;;;-8.54;72.81;98672.09;4888741;29;20085;-56
2021/12/24 07:34:12;;;;;;;6.97;4.75;;;;;;;-8.49;73.04;98668.13;4888321;29;20033;-57
2021/12/24 07:36:38;;;;;;;9.45;5.10;;;;;;;-8.37;72.53;98677.72;4887176;29;20037;-57
2021/12/24 07:39:04;;;;;;;7.57;4.68;;;;;;;-8.52;71.73;98668.84;4887481;29;20815;-56
2021/12/24 07:41:29;;;;;;;11.43;5.68;;;;;;;-8.53;71.69;98679.69;4886641;29;20088;-56
2021/12/24 07:43:56;;;;;;;9.18;5.25;;;;;;;-8.46;72.13;98670.75;4888419;29;20036;-55
2021/12/24 07:46:24;;;;;;;9.57;5.22;;;;;;;-8.34;71.00;98673.69;4885213;29;20048;-55
2021/12/24 07:48:50;;;;;;;8.27;4.68;;;;;;;-8.30;72.28;98672.13;4888070;29;20032;-57
2021/12/24 07:54:01;;;;;;;8.68;5.07;;;;;;;-8.51;70.84;98665.56;4886997;29;20040;-55
2021/12/24 07:56:31;;;;;;;7.63;5.18;;;;;;;-8.36;71.66;98661.88;4888268;29;20037;-55
2021/12/24 07:58:58;;;;;;;11.73;6.05;;;;;;;-8.23;71.48;98678.25;4886958;29;20063;-56
2021/12/24 08:01:25;;;;;;;6.78;4.88;;;;;;;-8.16;70.72;98665.09;4888931;29;20043;-56
2021/12/24 08:03:55;;;;;;;7.85;5.25;;;;;;;-8.39;70.93;98672.66;4886234;29;20348;-54
2021/12/24 08:06:24;;;;;;;7.65;4.82;;;;;;;-8.28;70.32;98659.63;4888684;29;20041;-56
2021/12/24 08:08:50;;;;;;;10.20;5.35;;;;;;;-8.21;70.81;98659.94;4889630;29;20044;-56
2021/12/24 08:11:15;;;;;;;9.25;5.40;;;;;;;-8.18;70.55;98667.56;4886458;29;20025;-56
2021/12/24 08:13:42;;;;;;;11.40;5.22;;;;;;;-8.08;70.54;98666.25;4885831;29;20028;-56
2021/12/24 08:16:09;;;;;;;8.07;5.15;;;;;;;-8.52;70.44;98600.25;4888004;29;20286;-57
2021/12/24 08:18:37;;;;;;;10.55;5.85;;;;;;;-8.17;69.58;98656.69;4903209;29;20047;-56
2021/12/24 08:21:04;;;;;;;9.13;5.38;;;;;;;-8.18;70.31;98646.59;4888573;29;20028;-56
2021/12/24 08:23:29;;;;;;;7.60;5.13;;;;;;;-8.07;70.76;98657.03;4889827;29;20044;-57
2021/12/24 08:25:58;;;;;;;9.00;5.60;;;;;;;-8.17;69.71;98658.38;4889865;29;20093;-57
2021/12/24 08:28:26;;;;;;;8.55;5.35;;;;;;;-8.08;70.38;98647.78;4887751;29;20046;-56
2021/12/24 08:30:52;;;;;;;8.10;4.50;;;;;;;-8.20;69.90;98658.25;4885567;29;20051;-57
2021/12/24 08:33:18;;;;;;;9.02;5.30;;;;;;;-8.18;70.60;98651.63;4889376;29;20025;-56
2021/12/24 08:35:43;;;;;;;7.10;5.35;;;;;;;-8.19;70.30;98655.81;4887561;29;20224;-57
2021/12/24 08:38:09;;;;;;;7.55;4.65;;;;;;;-8.09;70.27;98651.97;4888524;29;20025;-56
2021/12/24 08:40:35;;;;;;;13.15;6.03;;;;;;;-7.97;70.71;98638.97;4888735;29;20029;-57
2021/12/24 08:43:01;;;;;;;9.43;5.35;;;;;;;-8.10;69.69;98650.25;4888513;29;20296;-56
2021/12/24 08:45:26;;;;;;;10.07;5.80;;;;;;;-8.06;70.27;98641.19;4888849;29;20025;-57
2021/12/24 08:47:52;;;;;;;10.15;5.88;;;;;;;-8.04;69.83;98632.88;4887040;29;20218;-56
2021/12/24 08:50:18;;;;;;;9.15;5.65;;;;;;;-7.86;69.74;98632.66;4889362;29;20088;-57
2021/12/24 08:52:45;;;;;;;11.25;5.93;;;;;;;-7.82;69.53;98631.13;4886910;29;20028;-57
2021/12/24 08:55:12;;;;;;;11.63;5.60;;;;;;;-7.74;70.35;98623.84;4888243;29;20029;-57
2021/12/24 08:57:39;;;;;;;9.43;5.25;;;;;;;-7.73;69.51;98628.06;4888493;29;20021;-56
2021/12/24 09:00:09;;;;;;;11.57;5.57;;;;;;;-7.76;69.29;98622.94;4887712;29;20045;-56
2021/12/24 09:02:35;;;;;;;12.32;5.45;;;;;;;-7.90;69.76;98614.94;4886712;29;20025;-57
2021/12/24 09:05:01;;;;;;;8.15;5.65;;;;;;;-7.89;69.98;98619.16;4888073;29;20033;-57
2021/12/24 09:07:28;;;;;;;9.70;5.00;;;;;;;-7.98;70.13;98607.13;4887584;29;20036;-58
2021/12/24 09:09:54;;;;;;;8.50;5.80;;;;;;;-7.77;70.89;98614.53;4888476;29;20263;-58
2021/12/24 09:12:19;;;;;;;8.80;5.72;;;;;;;-7.92;70.69;98614.00;4889612;29;20036;-57
2021/12/24 09:14:45;;;;;;;8.55;4.82;;;;;;;-7.81;70.48;98608.56;4888717;29;20041;-58
2021/12/24 09:17:11;;;;;;;9.70;5.35;;;;;;;-7.88;70.28;98595.72;4884151;29;20068;-57
2021/12/24 09:19:43;;;;;;;9.23;5.45;;;;;;;-7.62;70.81;98594.09;4880271;29;20029;-58
2021/12/24 09:22:15;;;;;;;9.80;5.90;;;;;;;-7.59;70.70;98588.34;4892591;29;20140;-57
2021/12/24 09:24:42;;;;;;;8.52;5.95;;;;;;;-7.80;69.88;98589.31;4899877;29;20041;-57
2021/12/24 09:27:08;;;;;;;8.65;5.65;;;;;;;-7.72;70.46;98584.56;4889295;29;20274;-57
2021/12/24 09:29:34;;;;;;;9.75;6.40;;;;;;;-7.66;70.46;98587.25;4904749;29;20314;-56
2021/12/24 09:31:59;;;;;;;11.82;6.55;;;;;;;-7.65;69.84;98574.75;4888672;29;20037;-58
2021/12/24 09:34:25;;;;;;;11.90;6.72;;;;;;;-7.65;69.72;98574.75;4888384;29;20037;-57
2021/12/24 09:36:50;;;;;;;10.32;6.50;;;;;;;-7.70;69.61;98577.91;4888602;29;20033;-57
2021/12/24 09:39:17;;;;;;;9.23;5.95;;;;;;;-7.71;69.76;98578.72;4889725;29;20322;-56
2021/12/24 09:41:43;;;;;;;11.02;5.38;;;;;;;-7.54;70.05;98582.66;4889430;29;20037;-57
2021/12/24 09:44:08;;;;;;;11.00;5.90;;;;;;;-7.55;69.75;98580.94;4894618;29;20092;-57
2021/12/24 09:46:36;;;;;;;11.07;6.32;;;;;;;-7.69;68.95;98567.06;4897469;29;20053;-58
2021/12/24 09:49:02;;;;;;;10.77;6.13;;;;;;;-7.63;69.55;98578.16;4888281;29;20029;-57
2021/12/24 09:51:28;;;;;;;9.23;6.03;;;;;;;-7.72;69.52;98579.53;4888143;29;20028;-58
2021/12/24 09:53:55;;;;;;;12.68;6.28;;;;;;;-8.03;69.84;98515.69;4888355;29;20032;-58
2021/12/24 09:56:22;;;;;;;10.90;5.93;;;;;;;-7.60;70.53;98576.56;4888418;29;20108;-57
2021/12/24 09:58:48;;;;;;;11.20;6.07;;;;;;;-7.53;69.66;98571.78;4889694;29;20032;-57
2021/12/24 10:01:36;;;;;;;9.88;6.43;;;;;;;-7.55;69.58;98583.44;4889461;29;20069;-57
2021/12/24 10:04:17;;;;;;;12.45;6.68;;;;;;;-7.86;69.50;98594.13;4889530;29;20082;-58
2021/12/24 10:06:56;;;;;;;;;;;;;;;-7.66;69.77;98585.59;4892222;29;20040;-58
2021/12/24 10:09:49;;;;;;;11.52;6.10;;;;;;;-7.70;70.11;98566.19;4891597;29;19916;-57
2021/12/24 10:12:25;;;;;;;11.27;6.75;;;;;;;-7.53;70.05;98573.44;4892247;29;20033;-57
2021/12/24 10:14:57;;;;;;;10.52;6.93;;;;;;;-7.99;69.26;98499.94;4891151;29;20225;-57
2021/12/24 10:17:22;;;;;;;;;;;;;;;-7.66;70.36;98572.19;4905937;29;20100;-58
2021/12/24 10:19:53;;;;;;;14.35;7.03;;;;;;;-8.01;69.79;98514.06;4895569;29;19912;-56
2021/12/24 10:22:20;;;;;;;;;;;;;;;-7.59;70.14;98574.09;4891587;29;20028;-58
2021/12/24 10:25:13;;;;;;;13.25;6.97;;;;;;;-7.56;69.21;98580.88;4892373;29;20112;-57
2021/12/24 10:27:40;;;;;;;15.10;7.40;;;;;;;-7.55;69.73;98559.94;4884947;29;20029;-57
2021/12/24 10:30:32;;;;;;;12.63;7.32;;;;;;;-7.74;69.65;98581.97;4885625;29;20025;-57
2021/12/24 10:33:07;;;;;;;;;;;;;;;-7.75;69.89;98567.72;4891304;29;20021;-57
2021/12/24 10:35:32;;;;;;;11.90;6.80;;;;;;;-7.71;70.54;98563.63;4892217;29;19934;-57
2021/12/24 10:38:12;;;;;;;12.05;7.00;;;;;;;-7.60;69.73;98567.34;4892138;29;20033;-57
2021/12/24 10:40:53;;;;;;;12.80;7.30;;;;;;;-7.60;69.89;98557.28;4889866;29;20029;-57
2021/12/24 10:43:33;;;;;;;10.52;7.05;;;;;;;-7.51;69.47;98555.09;4891035;29;20040;-58
2021/12/24 10:46:13;;;;;;;11.87;7.07;;;;;;;-7.75;69.77;98509.03;4890134;29;20065;-61
2021/12/24 10:48:47;;;;;;;12.68;7.85;;;;;;;-7.39;69.40;98556.28;4890866;29;20093;-58
2021/12/24 10:51:21;;;;;;;10.80;6.68;;;;;;;-7.37;69.08;98553.00;4891074;29;20041;-58
2021/12/24 10:54:03;;;;;;;10.32;6.75;;;;;;;-7.33;69.24;98553.94;4890982;29;20081;-58
2021/12/24 10:56:29;;;;;;;13.45;7.97;;;;;;;-7.35;69.39;98553.91;4890662;29;20028;-58
2021/12/24 10:58:55;;;;;;;10.73;7.00;;;;;;;-7.44;69.04;98551.09;4889664;29;20029;-58
2021/12/24 11:01:20;;;;;;;10.50;6.80;;;;;;;-7.37;69.09;98559.69;4890938;29;20033;-57
2021/12/24 11:03:46;;;;;;;11.75;7.07;;;;;;;-7.37;69.01;98547.97;4890873;29;20210;-57
2021/12/24 11:06:15;;;;;;;11.73;7.47;;;;;;;-7.39;68.79;98546.22;4891733;29;20033;-60
2021/12/24 11:08:41;;;;;;;14.55;7.75;;;;;;;-7.34;68.99;98549.72;4890490;29;20025;-58
2021/12/24 11:11:11;;;;;;;10.75;6.88;;;;;;;-7.49;68.84;98555.97;4891595;29;20029;-57
2021/12/24 11:13:42;;;;;;;11.73;6.93;;;;;;;-7.96;69.22;98499.19;4891432;29;20154;-58
2021/12/24 11:16:19;;;;;;;9.75;6.35;;;;;;;-8.21;69.74;98491.69;4890805;29;20032;-58
2021/12/24 11:18:55;;;;;;;11.40;7.35;;;;;;;-7.68;69.91;98554.53;4897908;29;20056;-59
2021/12/24 11:21:26;;;;;;;12.32;7.30;;;;;;;-7.95;70.01;98526.88;4898651;29;20033;-58
2021/12/24 11:23:53;;;;;;;10.80;7.43;;;;;;;-7.71;69.82;98530.97;4890093;29;20032;-58
2021/12/24 11:26:28;;;;;;;13.20;6.78;;;;;;;-7.78;69.87;98529.94;4891172;29;20036;-58
2021/12/24 11:28:55;;;;;;;10.80;6.63;;;;;;;-7.67;69.22;98537.78;4888943;29;20344;-59
2021/12/24 11:31:24;;;;;;;18.35;8.25;;;;;;;-8.08;69.38;98477.88;4889210;29;20024;-59
2021/12/24 11:33:51;;;;;;;12.35;6.93;;;;;;;-7.85;68.99;98543.06;4891096;29;20053;-58
2021/12/24 11:36:20;;;;;;;11.07;7.20;;;;;;;-7.85;70.63;98526.34;4889985;29;20145;-59
2021/12/24 11:38:49;;;;;;;12.43;7.45;;;;;;;-7.70;70.06;98530.16;4889017;29;20064;-59
2021/12/24 11:41:17;;;;;;;12.93;6.90;;;;;;;-7.91;69.01;98503.56;4889037;29;20100;-58
2021/12/24 11:43:50;;;;;;;13.57;7.68;;;;;;;-7.77;69.13;98549.19;4889683;29;20060;-59
2021/12/24 11:46:18;;;;;;;13.35;7.25;;;;;;;-8.12;69.78;98471.03;4890075;29;20040;-58
2021/12/24 11:48:47;;;;;;;14.48;7.57;;;;;;;-7.67;68.96;98525.22;4885778;29;20049;-58
2021/12/24 11:51:16;;;;;;;13.45;7.38;;;;;;;-7.88;69.12;98526.25;4886208;29;20035;-58
2021/12/24 11:53:41;;;;;;;11.13;7.13;;;;;;;-7.95;69.50;98529.38;4886636;29;20032;-59
2021/12/24 11:56:10;;;;;;;13.80;7.85;;;;;;;-7.82;69.72;98551.56;4883165;29;20029;-58
2021/12/24 11:58:50;;;;;;;14.02;7.53;;;;;;;-7.75;70.10;98535.06;4876128;29;20119;-58
2021/12/24 12:01:17;;;;;;;17.02;8.13;;;;;;;-7.92;70.54;98498.44;4885775;29;20072;-58
2021/12/24 12:03:54;;;;;;;13.77;6.95;;;;;;;-8.26;70.00;98470.59;4889031;29;20029;-57
2021/12/24 12:06:23;;;;;;;12.50;7.72;;;;;;;-7.87;69.83;98534.63;4904038;29;20033;-58
2021/12/24 12:08:50;;;;;;;12.70;7.65;;;;;;;-8.23;70.59;98484.91;4888402;29;20033;-56
2021/12/24 12:11:26;;;;;;;13.93;6.57;;;;;;;-8.00;69.64;98546.78;4888455;29;20029;-57
2021/12/24 12:13:56;;;;;;;11.43;7.43;;;;;;;-8.11;70.11;98548.06;4888578;29;20222;-58
2021/12/24 12:16:22;;;;;;;11.35;7.15;;;;;;;-8.01;70.34;98540.06;4890149;29;20385;-58
2021/12/24 12:19:02;;;;;;;12.98;7.70;;;;;;;-8.32;70.36;98473.75;4889316;29;20036;-58
2021/12/24 12:21:39;;;;;;;15.60;8.27;;;;;;;-7.86;70.00;98544.72;4890454;29;20064;-61
2021/12/24 12:26:52;;;;;;;13.70;8.30;;;;;;;-7.73;69.99;98547.66;4884806;29;20153;-58
2021/12/24 12:29:28;;;;;;;12.75;7.93;;;;;;;-7.62;70.58;98543.84;4885288;29;20217;-58
2021/12/24 12:32:00;;;;;;;13.02;7.93;;;;;;;-7.61;70.15;98542.16;4890076;29;20032;-59
2021/12/24 12:34:44;;;;;;;;;;;;;;;-7.61;69.69;98539.66;4889534;29;20104;-58
2021/12/24 12:37:15;;;;;;;12.93;8.10;;;;;;;-7.89;70.43;98528.72;4890049;29;19915;-59
2021/12/24 12:39:41;;;;;;;12.48;7.70;;;;;;;-7.78;70.36;98545.00;4888742;29;20072;-57
2021/12/24 12:42:07;;;;;;;13.57;7.88;;;;;;;-7.84;69.99;98550.69;4890012;29;20357;-57
2021/12/24 12:44:37;;;;;;;14.10;8.10;;;;;;;-8.33;70.52;98481.22;4889441;29;20096;-59
2021/12/24 12:47:15;;;;;;;14.05;8.18;;;;;;;-7.98;69.98;98532.63;4888574;29;20077;-57
2021/12/24 12:49:41;;;;;;;13.70;8.05;;;;;;;-7.94;69.91;98535.25;4888493;29;20043;-57
2021/12/24 12:52:16;;;;;;;13.82;8.05;;;;;;;-7.83;70.35;98538.97;4888959;29;20032;-58
2021/12/24 12:54:44;;;;;;;17.27;8.35;;;;;;;-7.87;69.61;98529.63;4872831;29;20064;-58
2021/12/24 12:57:16;;;;;;;13.80;8.18;;;;;;;-7.66;69.94;98545.38;4887629;29;20112;-61
2021/12/24 13:00:07;;;;;;;15.88;9.05;;;;;;;-7.69;70.02;98529.38;4889286;29;20065;-60
2021/12/24 13:03:07;;;;;;;12.18;7.75;;;;;;;-7.95;70.05;98531.88;4888422;29;20274;-58
2021/12/24 13:05:54;;;;;;;13.68;8.13;;;;;;;-8.19;70.35;98461.59;4873343;29;20376;-59
2021/12/24 13:08:23;;;;;;;17.60;9.15;;;;;;;-8.16;70.02;98451.66;4888384;29;20322;-59